Time;durP1;ratioP1;P1;durP2;ratioP2;P2;SDS_P1;SDS_P2;PMS_P1;PMS_P2;Temp;Humidity;BMP_temperature;BMP_pressure;BME280_temperature;BME280_humidity;BME280_pressure;Samples;Min_cycle;Max_cycle;Signal;HPM_P1;HPM_P2
2020/12/28 00:00:24;;;;;;;13.25;2.60;;;;;;;4.81;76.95;96069.63;4435243;32;20034;-73
2020/12/28 00:02:49;;;;;;;9.15;2.58;;;;;;;4.72;77.63;96066.38;4432802;32;20078;-73
2020/12/28 00:05:15;;;;;;;9.30;2.33;;;;;;;4.68;77.68;96063.84;4432942;32;20080;-73
2020/12/28 00:07:41;;;;;;;10.73;2.28;;;;;;;4.65;78.08;96062.09;4436561;32;20328;-73
2020/12/28 00:10:10;;;;;;;6.37;2.08;;;;;;;4.72;77.80;96064.34;4433099;32;20041;-73
2020/12/28 00:12:51;;;;;;;11.57;2.35;;;;;;;4.76;77.74;96062.06;4433955;32;20427;-73
2020/12/28 00:17:56;;;;;;;9.45;2.60;;;;;;;5.15;76.74;96057.03;3958187;32;15725514;-75
2020/12/28 00:20:24;;;;;;;5.95;1.90;;;;;;;5.15;76.74;96057.03;4436058;32;20229;-75
2020/12/28 00:22:50;;;;;;;9.30;1.80;;;;;;;4.71;77.76;96054.47;4435343;32;20029;-74
2020/12/28 00:25:19;;;;;;;6.82;2.12;;;;;;;4.65;78.13;96056.53;4438653;32;20096;-75
2020/12/28 00:27:46;;;;;;;6.22;2.37;;;;;;;4.64;78.30;96049.44;4435677;32;20034;-75
2020/12/28 00:30:12;;;;;;;7.45;2.08;;;;;;;4.58;78.17;96043.16;4434843;32;20022;-74
2020/12/28 00:32:38;;;;;;;6.75;2.00;;;;;;;4.55;78.38;96037.84;4438605;32;20032;-74
2020/12/28 00:35:06;;;;;;;8.27;2.00;;;;;;;4.51;78.98;96038.09;4432920;26;20413;-74
2020/12/28 00:37:32;;;;;;;3.78;1.85;;;;;;;4.50;79.06;96033.03;4424105;32;20070;-74
2020/12/28 00:39:58;;;;;;;5.95;1.98;;;;;;;4.44;79.14;96035.84;4426001;32;20089;-74
2020/12/28 00:42:24;;;;;;;6.50;1.40;;;;;;;4.46;79.19;96027.00;4425001;32;20055;-74
2020/12/28 00:44:50;;;;;;;4.47;1.87;;;;;;;4.39;79.29;96028.28;4425355;32;20442;-74
2020/12/28 00:47:17;;;;;;;8.15;1.75;;;;;;;4.51;79.07;96029.75;4425065;32;20069;-74
2020/12/28 00:49:43;;;;;;;8.43;1.92;;;;;;;4.52;78.88;96030.50;4424807;32;20038;-75
2020/12/28 00:52:08;;;;;;;4.85;2.03;;;;;;;4.61;78.58;96044.16;4424286;32;20636;-75
2020/12/28 00:54:34;;;;;;;7.45;2.10;;;;;;;4.59;77.98;96043.88;4424351;32;20018;-73
2020/12/28 00:57:01;;;;;;;7.07;1.98;;;;;;;4.69;77.72;96059.78;4427024;32;20112;-73
2020/12/28 00:59:27;;;;;;;7.62;2.22;;;;;;;4.67;77.62;96056.00;4422274;32;20167;-73
2020/12/28 01:01:54;;;;;;;11.27;2.80;;;;;;;4.72;78.01;96060.81;4425621;32;20089;-73
2020/12/28 01:04:32;;;;;;;9.77;2.83;;;;;;;4.79;77.21;96055.44;4420213;32;20573;-73
2020/12/28 01:07:14;;;;;;;6.55;2.60;;;;;;;4.88;77.08;96060.72;4422831;32;20096;-73
2020/12/28 01:09:40;;;;;;;8.10;2.72;;;;;;;4.99;76.62;96062.69;4425294;32;20030;-73
2020/12/28 01:12:06;;;;;;;10.70;3.80;;;;;;;5.08;76.20;96059.63;4420009;32;20044;-73
2020/12/28 01:14:31;;;;;;;11.05;4.40;;;;;;;5.21;75.90;96057.75;4421357;32;20088;-73
2020/12/28 01:16:57;;;;;;;14.30;4.90;;;;;;;5.04;75.96;96054.34;4423252;32;20078;-73
2020/12/28 01:19:22;;;;;;;15.88;6.00;;;;;;;5.00;76.34;96041.94;4421694;32;20056;-73
2020/12/28 01:21:48;;;;;;;16.20;5.70;;;;;;;5.08;76.19;96040.88;4420866;32;20069;-73
2020/12/28 01:24:14;;;;;;;17.52;6.12;;;;;;;5.06;76.09;96034.31;4425076;32;20101;-73
2020/12/28 01:26:39;;;;;;;14.93;5.87;;;;;;;5.06;75.74;96040.63;4420568;32;20093;-73
2020/12/28 01:29:05;;;;;;;17.50;6.50;;;;;;;5.06;76.06;96035.06;4415436;32;20434;-73
2020/12/28 01:31:31;;;;;;;16.60;5.47;;;;;;;5.12;75.36;96032.25;4420353;32;20029;-73
2020/12/28 01:33:56;;;;;;;13.82;5.82;;;;;;;5.00;75.48;96033.59;4407729;32;20042;-73
2020/12/28 01:36:22;;;;;;;16.08;4.62;;;;;;;4.97;75.75;96040.94;4390827;32;20026;-73
2020/12/28 01:38:48;;;;;;;13.25;5.10;;;;;;;5.00;75.86;96042.69;4400460;32;20128;-73
2020/12/28 01:41:13;;;;;;;14.15;4.55;;;;;;;5.05;75.82;96041.91;4399437;32;20127;-73
2020/12/28 01:43:39;;;;;;;14.13;4.40;;;;;;;5.13;75.57;96048.47;4404829;32;20060;-73
2020/12/28 01:46:06;;;;;;;36.80;18.70;;;;;;;5.17;75.44;96043.38;4404062;32;20464;-73
2020/12/28 01:48:33;;;;;;;12.55;4.28;;;;;;;5.35;75.30;96041.97;4401649;32;20095;-73
2020/12/28 01:50:59;;;;;;;11.23;4.12;;;;;;;5.46;75.08;96047.50;4403906;32;20395;-73
2020/12/28 01:53:25;;;;;;;11.27;4.70;;;;;;;5.46;74.79;96039.88;4407311;32;20030;-73
2020/12/28 01:55:56;;;;;;;15.70;4.05;;;;;;;5.48;74.24;96051.25;4399735;32;20034;-72
2020/12/28 01:58:21;;;;;;;14.27;4.32;;;;;;;5.68;73.39;96061.25;4398623;32;20067;-73
2020/12/28 02:00:47;;;;;;;16.65;4.78;;;;;;;5.74;72.74;96068.28;4403143;32;20041;-73
2020/12/28 02:03:26;;;;;;;14.35;4.40;;;;;;;5.70;72.28;96065.03;4401441;32;20064;-73
2020/12/28 02:06:05;;;;;;;10.68;3.85;;;;;;;5.73;72.44;96058.41;4393527;32;20111;-73
2020/12/28 02:08:30;;;;;;;14.40;4.12;;;;;;;5.39;73.02;96040.44;4400383;32;20042;-73
2020/12/28 02:10:56;;;;;;;12.73;3.55;;;;;;;5.34;73.78;96043.25;4400834;32;20104;-73
2020/12/28 02:13:22;;;;;;;8.35;3.35;;;;;;;5.19;74.22;96049.16;4402680;32;20035;-73
2020/12/28 02:15:47;;;;;;;7.85;3.03;;;;;;;5.43;73.58;96042.94;4401053;32;20072;-73
2020/12/28 02:18:13;;;;;;;7.35;2.47;;;;;;;5.42;73.07;96053.34;4402081;32;20078;-73
2020/12/28 02:20:40;;;;;;;10.93;2.70;;;;;;;5.28;73.51;96054.41;4403535;32;20100;-73
2020/12/28 02:23:05;;;;;;;7.87;2.67;;;;;;;5.44;72.74;96045.22;4394993;32;20053;-73
2020/12/28 02:25:31;;;;;;;9.15;2.65;;;;;;;5.55;72.29;96050.69;4398643;32;20046;-73
2020/12/28 02:27:57;;;;;;;9.10;3.30;;;;;;;5.59;72.62;96050.44;4400207;32;20399;-73
2020/12/28 02:30:22;;;;;;;6.30;2.25;;;;;;;5.60;72.62;96049.16;4398590;32;20414;-73
2020/12/28 02:32:48;;;;;;;8.18;2.62;;;;;;;5.54;72.54;96045.63;4394464;32;20115;-73
2020/12/28 02:35:13;;;;;;;8.60;2.75;;;;;;;5.39;72.23;96050.81;4395259;32;20097;-73
2020/12/28 02:37:39;;;;;;;5.97;2.60;;;;;;;5.43;72.90;96049.25;4396980;32;20137;-73
2020/12/28 02:40:05;;;;;;;5.87;2.55;;;;;;;5.41;72.80;96051.06;4401135;32;20034;-73
2020/12/28 02:42:31;;;;;;;5.35;2.10;;;;;;;5.52;72.93;96054.53;4408036;32;20100;-73
2020/12/28 02:44:56;;;;;;;6.70;2.20;;;;;;;5.56;72.67;96066.13;4400573;32;20091;-73
2020/12/28 02:47:22;;;;;;;9.23;2.72;;;;;;;5.62;72.35;96069.66;4404538;32;20108;-73
2020/12/28 02:49:47;;;;;;;11.05;3.53;;;;;;;5.70;72.72;96065.03;4402004;32;20107;-73
2020/12/28 02:52:13;;;;;;;17.70;5.43;;;;;;;5.74;72.62;96068.28;4400909;32;20035;-73
2020/12/28 02:54:39;;;;;;;16.73;6.68;;;;;;;5.34;73.75;96066.28;4409056;32;20047;-73
2020/12/28 02:57:04;;;;;;;19.00;6.65;;;;;;;5.26;74.92;96056.97;4402826;32;20482;-73
2020/12/28 02:59:30;;;;;;;23.10;7.30;;;;;;;4.89;76.03;96042.75;4395772;32;20073;-73
2020/12/28 03:01:55;;;;;;;18.48;7.40;;;;;;;4.93;76.29;96048.03;4404090;32;20430;-73
2020/12/28 03:04:21;;;;;;;21.62;7.45;;;;;;;4.94;76.33;96041.94;4396354;32;20039;-73
2020/12/28 03:06:47;;;;;;;18.85;7.57;;;;;;;4.89;76.41;96031.63;4403847;32;20101;-73
2020/12/28 03:09:12;;;;;;;19.80;7.28;;;;;;;4.80;76.57;96043.06;4397718;32;20136;-73
2020/12/28 03:11:38;;;;;;;19.15;6.78;;;;;;;4.82;76.24;96045.31;4397173;32;20086;-73
2020/12/28 03:14:05;;;;;;;19.98;8.60;;;;;;;4.85;76.36;96039.47;4396801;32;20348;-73
2020/12/28 03:16:30;;;;;;;16.02;7.78;;;;;;;4.86;76.14;96040.22;4398753;32;20152;-73
2020/12/28 03:18:56;;;;;;;20.90;9.02;;;;;;;4.74;76.96;96031.19;4399893;32;20066;-73
2020/12/28 03:21:22;;;;;;;21.35;8.15;;;;;;;4.75;77.14;96032.69;4401141;32;20107;-73
2020/12/28 03:23:47;;;;;;;21.23;8.82;;;;;;;4.80;76.97;96031.91;4397688;32;20078;-73
2020/12/28 03:26:13;;;;;;;20.52;9.07;;;;;;;4.82;76.69;96025.84;4400879;32;20065;-73
2020/12/28 03:28:38;;;;;;;23.75;8.63;;;;;;;4.89;76.69;96022.50;4399342;32;20129;-74
2020/12/28 03:31:04;;;;;;;21.30;9.27;;;;;;;4.91;76.53;96017.91;4400080;32;20167;-74
2020/12/28 03:33:30;;;;;;;24.83;9.23;;;;;;;4.85;76.19;96024.81;4399616;32;21459;-74
2020/12/28 03:35:55;;;;;;;27.85;10.23;;;;;;;4.98;76.76;96024.97;4401533;32;20029;-74
2020/12/28 03:38:21;;;;;;;22.85;10.13;;;;;;;5.05;76.22;96022.41;4395106;32;20033;-74
2020/12/28 03:40:46;;;;;;;23.87;9.07;;;;;;;5.16;75.79;96025.13;4405367;32;20095;-74
2020/12/28 03:43:12;;;;;;;23.65;9.50;;;;;;;5.27;75.63;96033.41;4400477;32;20084;-74
2020/12/28 03:45:38;;;;;;;23.00;9.00;;;;;;;5.41;75.05;96046.25;4400006;32;20156;-74
2020/12/28 03:48:04;;;;;;;22.73;9.45;;;;;;;5.46;74.72;96051.00;4395548;32;20127;-74
2020/12/28 03:50:29;;;;;;;22.37;9.38;;;;;;;5.54;74.44;96057.56;4385621;32;20055;-74
2020/12/28 03:52:55;;;;;;;22.10;9.18;;;;;;;5.58;74.44;96057.25;4400410;32;20061;-74
2020/12/28 03:55:21;;;;;;;21.98;9.13;;;;;;;5.43;73.92;96054.84;4397545;32;20041;-74
2020/12/28 03:57:46;;;;;;;20.05;9.13;;;;;;;5.32;74.66;96048.59;4397620;32;20537;-74
2020/12/28 04:00:12;;;;;;;26.62;10.35;;;;;;;5.21;74.96;96054.97;4400850;32;20398;-74
2020/12/28 04:02:38;;;;;;;24.05;10.65;;;;;;;5.38;74.85;96054.88;4398034;32;20165;-74
2020/12/28 04:05:05;;;;;;;24.45;10.85;;;;;;;5.33;74.49;96050.84;4397117;32;20169;-74
2020/12/28 04:07:31;;;;;;;28.15;11.63;;;;;;;5.37;74.89;96048.53;4398314;32;20046;-74
2020/12/28 04:09:57;;;;;;;23.15;10.40;;;;;;;5.40;74.90;96041.94;4398322;32;20139;-74
2020/12/28 04:12:22;;;;;;;22.58;11.98;;;;;;;5.45;74.70;96048.75;4400916;32;20407;-74
2020/12/28 04:14:48;;;;;;;24.00;10.57;;;;;;;5.34;74.61;96046.03;4398774;32;20081;-74
2020/12/28 04:17:14;;;;;;;34.53;10.88;;;;;;;5.17;75.24;96048.94;4398427;32;20418;-74
2020/12/28 04:19:39;;;;;;;23.85;10.13;;;;;;;5.17;75.05;96051.72;4398677;32;20051;-74
2020/12/28 04:22:05;;;;;;;25.12;9.90;;;;;;;5.31;75.51;96053.37;4399812;32;20065;-74
2020/12/28 04:24:31;;;;;;;24.42;10.48;;;;;;;5.25;75.21;96061.03;4397774;32;20052;-74
2020/12/28 04:26:56;;;;;;;20.10;9.20;;;;;;;5.06;75.55;96064.97;4400899;32;20049;-74
2020/12/28 04:29:22;;;;;;;21.83;9.20;;;;;;;5.09;75.77;96058.34;4398753;32;20136;-74
2020/12/28 04:31:48;;;;;;;18.65;8.60;;;;;;;5.20;75.39;96059.03;4397993;32;20331;-74
2020/12/28 04:34:13;;;;;;;19.42;9.13;;;;;;;5.22;75.49;96056.47;4398021;32;20053;-74
2020/12/28 04:36:39;;;;;;;22.13;9.75;;;;;;;5.29;74.94;96069.13;4400421;32;20378;-74
2020/12/28 04:39:06;;;;;;;20.37;8.90;;;;;;;5.31;74.06;96075.69;4400959;32;20045;-74
2020/12/28 04:41:32;;;;;;;20.17;9.10;;;;;;;5.44;74.49;96070.31;4400334;32;20382;-74
2020/12/28 04:43:59;;;;;;;20.75;9.40;;;;;;;5.38;74.39;96068.81;4400468;32;20038;-74
2020/12/28 04:46:29;;;;;;;21.85;9.18;;;;;;;5.37;73.58;96081.97;4403592;32;20038;-74
2020/12/28 04:48:56;;;;;;;20.92;8.85;;;;;;;5.27;73.75;96083.56;4397867;32;20026;-74
2020/12/28 04:51:22;;;;;;;20.08;8.57;;;;;;;5.31;73.54;96080.50;4383677;32;20085;-74
2020/12/28 04:53:51;;;;;;;19.40;8.35;;;;;;;5.17;73.96;96081.59;4398563;32;20603;-74
2020/12/28 04:56:18;;;;;;;20.35;8.70;;;;;;;5.27;73.99;96085.59;4395885;32;20038;-74
2020/12/28 04:58:43;;;;;;;22.65;9.57;;;;;;;5.11;74.93;96090.00;4404883;32;20069;-74
2020/12/28 05:01:09;;;;;;;23.80;9.45;;;;;;;5.21;75.16;96090.44;4397474;32;20130;-74
2020/12/28 05:03:34;;;;;;;21.10;8.98;;;;;;;5.15;75.29;96101.59;4403431;32;20038;-74
2020/12/28 05:06:00;;;;;;;18.05;8.43;;;;;;;5.24;75.00;96098.53;4406001;32;20531;-74
2020/12/28 05:08:26;;;;;;;17.40;8.95;;;;;;;5.23;74.04;96099.81;4395820;32;20023;-74
2020/12/28 05:10:52;;;;;;;14.48;7.87;;;;;;;5.22;74.40;96098.28;4386091;32;20505;-74
2020/12/28 05:13:18;;;;;;;19.95;8.15;;;;;;;5.28;74.08;96098.25;4404143;32;20108;-74
2020/12/28 05:15:46;;;;;;;21.20;8.05;;;;;;;5.38;74.03;96086.31;4394812;32;20026;-74
2020/12/28 05:18:15;;;;;;;16.60;8.25;;;;;;;5.39;73.93;96095.41;4394170;32;20083;-74
2020/12/28 05:20:43;;;;;;;14.23;8.25;;;;;;;5.31;74.56;96103.53;4398563;32;20411;-74
2020/12/28 05:23:09;;;;;;;18.90;8.98;;;;;;;5.38;74.63;96102.25;4400047;32;20077;-74
2020/12/28 05:25:36;;;;;;;18.00;8.30;;;;;;;5.46;74.56;96112.31;4403473;32;20057;-74
2020/12/28 05:28:03;;;;;;;18.60;8.07;;;;;;;5.34;73.80;96122.03;4395597;32;20034;-74
2020/12/28 05:30:33;;;;;;;18.80;8.10;;;;;;;4.93;75.32;96121.22;4396481;32;20112;-73
2020/12/28 05:33:04;;;;;;;16.85;7.35;;;;;;;4.85;75.56;96116.69;4396523;32;20556;-74
2020/12/28 05:35:31;;;;;;;19.55;8.98;;;;;;;4.67;75.96;96126.38;4395053;32;20101;-74
2020/12/28 05:38:00;;;;;;;17.48;8.55;;;;;;;4.90;75.78;96127.81;4400968;32;20081;-74
2020/12/28 05:40:27;;;;;;;20.90;8.95;;;;;;;4.91;75.51;96125.78;4389768;32;20421;-74
2020/12/28 05:42:56;;;;;;;18.23;9.25;;;;;;;4.73;76.03;96129.13;4405160;32;20124;-72
2020/12/28 05:45:22;;;;;;;20.02;9.25;;;;;;;4.87;76.57;96133.62;4404412;32;20038;-72
2020/12/28 05:47:51;;;;;;;17.08;8.95;;;;;;;4.96;75.92;96130.56;4404492;32;20057;-74
2020/12/28 05:50:21;;;;;;;20.00;8.52;;;;;;;5.02;75.81;96142.44;4401544;32;20108;-74
2020/12/28 05:52:53;;;;;;;19.70;9.20;;;;;;;5.21;76.12;96148.94;4397921;32;20080;-73
2020/12/28 05:55:21;;;;;;;19.17;9.57;;;;;;;5.28;75.37;96145.63;4396155;32;20088;-73
2020/12/28 05:57:46;;;;;;;18.73;10.25;;;;;;;5.35;75.47;96161.81;4400848;32;20045;-73
2020/12/28 06:00:12;;;;;;;18.67;9.43;;;;;;;5.30;75.35;96166.13;4397608;32;20137;-74
2020/12/28 06:02:39;;;;;;;20.48;9.23;;;;;;;5.25;74.82;96172.47;4400359;32;20561;-72
2020/12/28 06:05:15;;;;;;;14.52;8.52;;;;;;;5.41;75.27;96170.91;4403176;32;20068;-72
2020/12/28 06:07:41;;;;;;;20.73;9.55;;;;;;;5.52;74.89;96179.94;4401388;32;20050;-74
2020/12/28 06:10:09;;;;;;;22.98;9.63;;;;;;;5.50;74.27;96174.13;4402012;32;20029;-72
2020/12/28 06:12:34;;;;;;;16.73;8.80;;;;;;;5.67;74.07;96171.25;4397858;32;20080;-72
2020/12/28 06:15:00;;;;;;;21.25;9.25;;;;;;;5.66;74.23;96172.53;4400825;32;20038;-72
2020/12/28 06:17:34;;;;;;;25.02;9.40;;;;;;;5.51;73.88;96178.44;4399761;32;20411;-72
2020/12/28 06:20:02;;;;;;;21.20;9.23;;;;;;;5.64;74.40;96189.00;4403838;32;20391;-72
2020/12/28 06:22:29;;;;;;;16.62;8.77;;;;;;;5.63;74.60;96198.66;4397497;32;20088;-72
2020/12/28 06:24:58;;;;;;;21.33;9.77;;;;;;;5.72;74.42;96209.50;4393729;32;20383;-73
2020/12/28 06:27:27;;;;;;;20.98;9.18;;;;;;;5.73;74.02;96208.22;4398783;32;20436;-72
2020/12/28 06:29:53;;;;;;;22.70;10.77;;;;;;;5.64;74.46;96208.53;4404703;32;20042;-72
2020/12/28 06:32:18;;;;;;;23.20;10.43;;;;;;;5.66;74.16;96215.13;4399648;32;20100;-72
2020/12/28 06:34:45;;;;;;;20.48;10.98;;;;;;;5.55;74.27;96226.31;4400283;32;20352;-72
2020/12/28 06:37:12;;;;;;;26.33;11.15;;;;;;;5.62;74.54;96228.56;4403079;32;20384;-72
2020/12/28 06:39:37;;;;;;;21.62;9.95;;;;;;;5.63;74.58;96227.31;4396628;32;20403;-72
2020/12/28 06:42:12;;;;;;;19.37;9.75;;;;;;;5.66;74.05;96233.88;4396873;32;20110;-72
2020/12/28 06:44:38;;;;;;;22.13;10.00;;;;;;;5.69;74.03;96228.03;4400026;32;20154;-72
2020/12/28 06:49:52;;;;;;;24.27;12.80;;;;;;;6.10;73.12;96248.38;3988174;32;15024802;-72
2020/12/28 06:52:18;;;;;;;27.37;13.25;;;;;;;6.10;73.12;96248.38;4440137;32;20044;-72
2020/12/28 06:54:44;;;;;;;25.00;12.40;;;;;;;5.65;73.92;96263.78;4434709;32;20138;-72
2020/12/28 06:57:10;;;;;;;31.60;14.55;;;;;;;5.60;74.11;96261.78;4437817;32;20055;-72
2020/12/28 06:59:39;;;;;;;33.20;14.45;;;;;;;5.60;74.45;96266.59;4439687;32;20644;-71
2020/12/28 07:02:06;;;;;;;32.50;12.82;;;;;;;5.68;74.58;96273.91;4437088;32;20084;-72
2020/12/28 07:04:35;;;;;;;25.30;12.02;;;;;;;5.65;74.22;96274.94;4441295;32;20111;-72
2020/12/28 07:07:03;;;;;;;22.52;11.10;;;;;;;5.73;74.11;96281.50;4442614;32;20029;-71
2020/12/28 07:09:29;;;;;;;24.70;10.43;;;;;;;5.75;73.84;96284.53;4438852;32;20073;-72
2020/12/28 07:11:54;;;;;;;18.00;8.23;;;;;;;5.78;73.46;96291.09;4439996;32;20088;-72
2020/12/28 07:14:21;;;;;;;15.77;8.15;;;;;;;5.80;73.03;96291.38;4439294;32;20076;-71
2020/12/28 07:16:55;;;;;;;14.65;7.47;;;;;;;5.85;72.71;96296.94;4442614;32;20037;-73
2020/12/28 07:19:21;;;;;;;17.17;7.70;;;;;;;5.81;72.31;96296.47;4437080;32;20064;-74
2020/12/28 07:21:46;;;;;;;13.20;7.18;;;;;;;5.79;72.45;96301.75;4441708;32;20120;-74
2020/12/28 07:24:12;;;;;;;13.40;7.70;;;;;;;5.81;72.57;96302.03;4439427;32;20419;-74
2020/12/28 07:26:39;;;;;;;14.98;7.82;;;;;;;5.85;72.58;96313.66;4439650;32;20030;-74
2020/12/28 07:29:11;;;;;;;14.73;7.05;;;;;;;5.87;72.37;96313.16;4437063;32;20063;-74
2020/12/28 07:31:36;;;;;;;15.57;7.90;;;;;;;5.94;72.18;96316.16;4441494;32;20159;-74
2020/12/28 07:34:03;;;;;;;20.55;8.35;;;;;;;5.95;72.15;96319.69;4428785;32;20598;-74
2020/12/28 07:36:30;;;;;;;16.27;8.95;;;;;;;6.02;72.15;96325.50;4424039;32;20025;-74
2020/12/28 07:38:56;;;;;;;15.40;8.73;;;;;;;6.02;72.04;96325.50;4422726;32;20062;-74
2020/12/28 07:41:24;;;;;;;20.35;9.48;;;;;;;6.04;72.45;96328.53;4423653;32;20095;-74
2020/12/28 07:43:52;;;;;;;16.50;8.82;;;;;;;6.07;72.37;96340.69;4425053;32;20022;-74
2020/12/28 07:49:21;;;;;;;16.45;9.10;;;;;;;6.54;70.86;96355.44;3989319;32;15021966;-72
2020/12/28 07:52:10;;;;;;;16.45;8.57;;;;;;;6.54;70.86;96355.44;4439991;32;20056;-72
2020/12/28 07:54:44;;;;;;;19.20;9.52;;;;;;;6.11;71.90;96369.84;4440713;32;20084;-71
2020/12/28 07:57:17;;;;;;;21.08;9.63;;;;;;;6.10;71.93;96373.91;4436256;32;20047;-72
2020/12/28 07:59:48;;;;;;;17.20;9.00;;;;;;;6.05;72.10;96377.47;4440667;32;20061;-71
2020/12/28 08:02:46;;;;;;;19.52;9.02;;;;;;;6.06;72.39;96387.38;4438451;32;20013;-71
2020/12/28 08:05:13;;;;;;;17.23;8.93;;;;;;;6.07;72.29;96390.91;4435950;32;20081;-72
2020/12/28 08:07:38;;;;;;;17.92;8.85;;;;;;;6.06;72.16;96389.41;4439942;32;20033;-72
2020/12/28 08:10:09;;;;;;;17.62;8.35;;;;;;;6.06;72.25;96397.78;4437376;32;20021;-72
2020/12/28 08:12:39;;;;;;;22.23;9.10;;;;;;;6.12;72.09;96395.72;4436090;32;20033;-71
2020/12/28 08:15:05;;;;;;;14.52;7.70;;;;;;;6.14;72.01;96396.72;4436137;32;20082;-71
2020/12/28 08:17:31;;;;;;;15.82;8.15;;;;;;;6.13;71.88;96400.78;4437296;32;20364;-72
2020/12/28 08:22:42;;;;;;;17.83;8.85;;;;;;;6.10;71.75;96409.44;3984537;32;15022215;-74
2020/12/28 08:25:11;;;;;;;18.65;9.05;;;;;;;5.90;72.48;96412.56;4439432;32;20091;-74
2020/12/28 08:27:37;;;;;;;16.10;9.00;;;;;;;5.95;72.94;96411.75;4438789;32;20026;-74
2020/12/28 08:30:08;;;;;;;15.48;8.90;;;;;;;5.88;73.08;96418.63;4440325;32;20103;-74
2020/12/28 08:32:35;;;;;;;21.35;10.02;;;;;;;5.91;72.69;96423.19;4439445;32;20145;-72
2020/12/28 08:35:02;;;;;;;18.40;9.00;;;;;;;5.96;73.29;96432.81;4436799;32;20033;-75
2020/12/28 08:37:28;;;;;;;20.08;8.98;;;;;;;5.98;73.08;96441.41;4436593;32;20013;-72
2020/12/28 08:39:54;;;;;;;16.05;8.93;;;;;;;5.95;72.53;96443.22;4441893;32;20048;-72
2020/12/28 08:45:02;;;;;;;19.05;8.80;;;;;;;6.42;71.78;96452.44;3984546;32;15028059;-72
2020/12/28 08:47:29;;;;;;;20.12;10.10;;;;;;;6.42;71.78;96452.44;4431156;32;20060;-72
2020/12/28 08:49:56;;;;;;;22.40;10.93;;;;;;;5.99;72.67;96451.31;4430481;32;20034;-72
2020/12/28 08:52:23;;;;;;;24.15;11.02;;;;;;;6.04;72.90;96453.31;4437938;32;20029;-72
2020/12/28 08:55:04;;;;;;;25.20;12.27;;;;;;;6.02;72.77;96453.84;4433563;32;20320;-72
2020/12/28 08:57:30;;;;;;;28.10;13.35;;;;;;;6.03;72.76;96457.41;4430471;32;20037;-74
2020/12/28 08:59:58;;;;;;;28.30;12.13;;;;;;;5.95;72.95;96464.75;4433329;32;20305;-74
2020/12/28 09:02:25;;;;;;;30.02;12.98;;;;;;;5.94;73.66;96477.19;4432930;32;20417;-74
2020/12/28 09:04:51;;;;;;;29.05;12.02;;;;;;;5.95;73.50;96484.28;4432659;32;20078;-73
2020/12/28 09:07:19;;;;;;;31.20;12.80;;;;;;;5.90;73.63;96496.22;4435448;32;20433;-74
2020/12/28 09:09:47;;;;;;;28.65;13.45;;;;;;;5.91;73.35;96492.16;4435036;32;20057;-74
2020/12/28 09:12:13;;;;;;;25.98;12.60;;;;;;;5.80;73.56;96503.31;4434131;32;20465;-74
2020/12/28 09:14:39;;;;;;;39.80;12.52;;;;;;;5.79;74.33;96504.56;4430913;32;20436;-74
2020/12/28 09:17:06;;;;;;;27.20;11.65;;;;;;;5.66;74.52;96507.88;4427410;32;20093;-74
2020/12/28 09:19:32;;;;;;;29.35;13.05;;;;;;;5.61;74.18;96514.22;4430528;32;20478;-74
2020/12/28 09:21:59;;;;;;;30.62;12.52;;;;;;;5.52;75.26;96517.25;4429005;32;20068;-74
2020/12/28 09:24:25;;;;;;;28.25;12.10;;;;;;;5.47;75.11;96531.97;4427928;32;20367;-74
2020/12/28 09:26:54;;;;;;;29.52;12.45;;;;;;;5.41;75.00;96536.00;4429921;32;20033;-74
2020/12/28 09:29:20;;;;;;;38.15;14.55;;;;;;;5.35;75.29;96533.22;4430368;32;20168;-74
2020/12/28 09:31:46;;;;;;;29.23;14.05;;;;;;;5.25;76.23;96537.50;4429090;32;20089;-74
2020/12/28 09:34:11;;;;;;;40.88;14.70;;;;;;;5.28;76.42;96535.75;4430257;32;20060;-74
2020/12/28 09:36:37;;;;;;;41.37;14.85;;;;;;;5.23;76.41;96553.97;4429144;32;20052;-74
2020/12/28 09:39:04;;;;;;;35.55;15.30;;;;;;;5.25;76.29;96556.25;4426736;32;20093;-74
2020/12/28 09:41:29;;;;;;;43.22;17.17;;;;;;;5.26;76.61;96555.75;4429558;32;20082;-74
2020/12/28 09:43:55;;;;;;;50.00;18.02;;;;;;;5.23;76.64;96561.56;4431496;32;20038;-74
2020/12/28 09:46:21;;;;;;;44.08;16.92;;;;;;;5.10;76.78;96567.62;4429913;32;20098;-74
2020/12/28 09:48:48;;;;;;;44.47;16.52;;;;;;;5.02;76.97;96563.78;4429629;32;20060;-74
2020/12/28 09:51:14;;;;;;;46.72;17.27;;;;;;;4.99;76.72;96558.44;4428832;32;20038;-74
2020/12/28 09:53:40;;;;;;;57.33;18.25;;;;;;;4.96;77.04;96559.44;4431975;32;20368;-74
2020/12/28 09:56:06;;;;;;;39.50;15.38;;;;;;;4.95;76.99;96566.31;4420394;32;20098;-74
2020/12/28 09:58:33;;;;;;;41.55;15.57;;;;;;;5.07;77.01;96562.28;4418580;32;20447;-74
2020/12/28 10:01:00;;;;;;;38.03;16.12;;;;;;;5.12;76.87;96567.12;4416624;32;20067;-74
2020/12/28 10:03:26;;;;;;;38.75;16.15;;;;;;;5.22;76.78;96573.97;4418605;32;20053;-74
2020/12/28 10:05:52;;;;;;;38.35;15.90;;;;;;;5.28;76.27;96583.84;4418769;32;20069;-74
2020/12/28 10:08:21;;;;;;;35.05;15.82;;;;;;;5.31;76.17;96582.09;4418220;32;20131;-74
2020/12/28 10:10:46;;;;;;;35.58;15.90;;;;;;;5.38;75.71;96579.59;4420057;32;20061;-74
2020/12/28 10:13:12;;;;;;;37.00;14.90;;;;;;;5.33;75.37;96582.34;4419879;32;20051;-74
2020/12/28 10:15:38;;;;;;;35.40;14.93;;;;;;;5.41;75.67;96581.38;4419464;32;20139;-72
2020/12/28 10:20:47;;;;;;;32.78;13.95;;;;;;;6.06;73.00;96595.88;4002538;31;15018555;-74
2020/12/28 10:23:13;;;;;;;31.83;14.25;;;;;;;6.06;73.00;96595.88;4462999;32;20448;-74
2020/12/28 10:25:38;;;;;;;34.05;13.05;;;;;;;5.72;73.70;96588.75;4463075;32;20029;-74
2020/12/28 10:28:04;;;;;;;28.73;12.32;;;;;;;5.58;73.37;96584.94;4455833;32;20022;-74
2020/12/28 10:30:30;;;;;;;26.80;12.40;;;;;;;5.39;73.61;96589.47;4458861;32;20069;-74
2020/12/28 10:32:56;;;;;;;27.87;12.18;;;;;;;5.30;73.56;96597.28;4462650;32;20418;-74
2020/12/28 10:35:22;;;;;;;27.77;11.23;;;;;;;5.22;74.21;96613.72;4451193;32;20348;-74
2020/12/28 10:37:47;;;;;;;29.95;12.52;;;;;;;5.26;74.30;96619.06;4451391;32;20070;-74
2020/12/28 10:40:13;;;;;;;25.08;11.30;;;;;;;5.31;74.34;96616.28;4464236;32;20032;-74
2020/12/28 10:42:39;;;;;;;21.83;10.30;;;;;;;5.34;74.23;96611.75;4451835;32;20036;-74
2020/12/28 10:45:05;;;;;;;27.20;11.82;;;;;;;5.41;73.78;96606.47;4456482;32;20061;-74
2020/12/28 10:47:31;;;;;;;28.20;12.88;;;;;;;5.28;73.44;96608.19;4453941;32;20123;-74
2020/12/28 10:49:56;;;;;;;30.70;13.25;;;;;;;5.29;73.07;96610.47;4450364;32;20375;-74
2020/12/28 10:52:22;;;;;;;26.80;11.77;;;;;;;5.37;73.69;96613.53;4452977;32;20468;-74
2020/12/28 10:54:48;;;;;;;28.35;12.40;;;;;;;5.21;73.38;96615.00;4453748;32;20046;-74
2020/12/28 10:57:13;;;;;;;30.77;13.38;;;;;;;5.11;74.27;96616.50;4454484;32;20418;-74
2020/12/28 10:59:39;;;;;;;27.70;12.07;;;;;;;5.16;74.51;96612.22;4453919;32;20021;-74
2020/12/28 11:02:05;;;;;;;26.95;11.15;;;;;;;5.17;74.02;96619.28;4450586;32;20068;-74
2020/12/28 11:04:31;;;;;;;30.73;12.23;;;;;;;4.92;74.44;96620.22;4449373;32;20052;-74
2020/12/28 11:06:56;;;;;;;26.37;11.38;;;;;;;5.02;74.09;96627.84;4453392;32;20041;-74
2020/12/28 11:09:22;;;;;;;26.92;11.55;;;;;;;5.30;73.88;96620.34;4454102;32;20130;-74
2020/12/28 11:11:48;;;;;;;28.60;12.25;;;;;;;5.39;73.34;96619.34;4454559;32;20081;-74
2020/12/28 11:14:14;;;;;;;37.60;12.77;;;;;;;5.32;73.45;96619.84;4449670;32;20056;-74
2020/12/28 11:16:40;;;;;;;29.58;12.45;;;;;;;5.32;73.74;96623.41;4453425;32;20092;-74
2020/12/28 11:19:05;;;;;;;33.80;13.07;;;;;;;5.38;73.15;96626.19;4453785;32;20071;-74
2020/12/28 11:21:31;;;;;;;31.50;13.23;;;;;;;5.33;73.81;96624.91;4456636;32;20056;-74
2020/12/28 11:24:04;;;;;;;37.25;15.23;;;;;;;5.45;73.71;96628.50;4452580;32;20049;-74
2020/12/28 11:26:32;;;;;;;31.23;14.40;;;;;;;5.25;73.99;96626.66;4453850;32;20060;-74
2020/12/28 11:28:59;;;;;;;38.60;14.90;;;;;;;5.49;73.65;96637.38;4450032;32;20069;-74
2020/12/28 11:31:25;;;;;;;36.17;13.85;;;;;;;5.35;73.66;96641.16;4442365;32;20041;-74
2020/12/28 11:33:51;;;;;;;35.97;13.75;;;;;;;5.46;73.81;96630.78;4441673;32;20128;-74
2020/12/28 11:36:18;;;;;;;33.72;13.05;;;;;;;5.46;73.76;96630.78;4443029;32;20073;-74
2020/12/28 11:38:44;;;;;;;38.70;13.27;;;;;;;5.53;73.61;96638.63;4437347;32;20025;-74
2020/12/28 11:41:12;;;;;;;39.63;15.68;;;;;;;5.53;73.63;96647.00;4440107;32;20282;-74
2020/12/28 11:43:38;;;;;;;34.08;13.90;;;;;;;5.64;73.58;96646.28;4441189;32;20017;-74
2020/12/28 11:46:06;;;;;;;33.90;14.43;;;;;;;5.64;73.74;96652.63;4451120;32;20108;-74